createdAt,value
2018-10-18T00:04:23.137Z,100513.19
2018-10-18T00:09:26.740Z,100512.82
2018-10-18T00:14:30.457Z,100513.67
2018-10-18T00:19:33.899Z,100514.78
2018-10-18T00:24:37.395Z,100509.27
2018-10-18T00:29:41.383Z,100510.12
2018-10-18T00:34:58.306Z,100498.22
2018-10-18T00:40:01.620Z,100502.08
2018-10-18T00:45:05.828Z,100505.34
2018-10-18T00:50:10.706Z,100505.30
2018-10-18T00:55:13.847Z,100505.08
2018-10-18T01:00:17.553Z,100505.08
2018-10-18T01:05:20.881Z,100502.96
2018-10-18T01:10:24.247Z,100496.88
2018-10-18T01:15:27.545Z,100498.78
2018-10-18T01:20:30.909Z,100504.77
2018-10-18T01:25:34.217Z,100497.77
2018-10-18T01:30:37.558Z,100503.44
2018-10-18T01:35:40.894Z,100513.02
2018-10-18T01:40:44.355Z,100509.58
2018-10-18T01:45:47.870Z,100503.31
2018-10-18T01:50:51.215Z,100503.60
2018-10-18T01:55:54.705Z,100502.08
2018-10-18T02:00:58.077Z,100502.66
2018-10-18T02:06:01.606Z,100501.36
2018-10-18T02:11:05.854Z,100500.84
2018-10-18T02:16:09.309Z,100501.59
2018-10-18T02:21:12.884Z,100499.80
2018-10-18T02:26:16.690Z,100497.16
2018-10-18T02:31:20.161Z,100508.64
2018-10-18T02:36:23.855Z,100507.11
2018-10-18T02:41:27.072Z,100512.38
2018-10-18T02:46:30.628Z,100502.67
2018-10-18T02:51:33.882Z,100506.33
2018-10-18T02:56:39.354Z,100501.95
2018-10-18T03:01:43.824Z,100501.28
2018-10-18T03:06:48.273Z,100499.41
2018-10-18T03:11:52.679Z,100498.53
2018-10-18T03:16:56.735Z,100504.89
2018-10-18T03:22:01.177Z,100509.05
2018-10-18T03:27:05.561Z,100508.28
2018-10-18T03:32:09.893Z,100507.40
2018-10-18T03:37:14.019Z,100503.72
2018-10-18T03:42:18.291Z,100510.35
2018-10-18T03:47:22.744Z,100506.64
2018-10-18T03:52:26.961Z,100511.44
2018-10-18T03:57:31.074Z,100513.86
2018-10-18T04:02:35.446Z,100513.13
2018-10-18T04:07:39.964Z,100520.41
2018-10-18T04:12:44.162Z,100525.81
2018-10-18T04:17:48.628Z,100528.14
2018-10-18T04:22:52.968Z,100521.81
2018-10-18T04:27:57.624Z,100526.91
2018-10-18T04:33:02.946Z,100529.91
2018-10-18T04:38:07.535Z,100530.71
2018-10-18T04:43:12.495Z,100533.98
2018-10-18T04:48:17.235Z,100528.06
2018-10-18T04:53:21.664Z,100531.23
2018-10-18T04:58:26.012Z,100531.79
2018-10-18T05:03:31.376Z,100541.11
2018-10-18T05:08:36.804Z,100556.20
2018-10-18T05:13:40.985Z,100560.16
2018-10-18T05:18:45.774Z,100562.33
2018-10-18T05:24:08.912Z,100573.23
2018-10-18T05:29:13.856Z,100576.77
2018-10-18T05:34:18.126Z,100579.20
2018-10-18T05:39:23.320Z,100575.45
2018-10-18T05:44:27.641Z,100583.13
2018-10-18T05:49:32.372Z,100593.52
2018-10-18T05:54:36.705Z,100611.63
2018-10-18T05:59:41.951Z,100610.07
2018-10-18T06:04:46.496Z,100619.65
2018-10-18T06:09:51.232Z,100607.41
2018-10-18T06:14:55.952Z,100618.02
2018-10-18T06:20:00.776Z,100627.02
2018-10-18T06:25:06.077Z,100633.08
2018-10-18T06:30:12.767Z,100643.21
2018-10-18T06:35:17.361Z,100649.56
2018-10-18T06:40:21.774Z,100639.98
2018-10-18T06:45:26.327Z,100636.52
2018-10-18T06:50:31.113Z,100639.42
2018-10-18T06:55:35.731Z,100648.90
2018-10-18T07:00:40.383Z,100656.28
2018-10-18T07:05:45.023Z,100655.95
2018-10-18T07:10:49.907Z,100668.78
2018-10-18T07:15:54.584Z,100662.73
2018-10-18T07:20:59.976Z,100673.79
2018-10-18T07:26:04.926Z,100673.45
2018-10-18T07:31:09.530Z,100679.59
2018-10-18T07:36:14.402Z,100682.26
2018-10-18T07:41:19.244Z,100689.52
2018-10-18T07:46:23.576Z,100688.70
2018-10-18T07:51:28.264Z,100691.15
2018-10-18T07:56:32.749Z,100699.14
2018-10-18T08:01:37.150Z,100694.27
2018-10-18T08:06:41.692Z,100698.69
2018-10-18T08:11:51.002Z,100691.49
2018-10-18T08:16:55.798Z,100696.34
2018-10-18T08:22:00.261Z,100694.51
2018-10-18T08:27:04.773Z,100698.77
2018-10-18T08:32:09.140Z,100710.21
2018-10-18T08:37:13.708Z,100710.21
2018-10-18T08:42:18.164Z,100710.50
2018-10-18T08:47:22.749Z,100714.47
2018-10-18T08:52:27.204Z,100716.59
2018-10-18T08:57:31.606Z,100718.67
2018-10-18T09:02:43.533Z,100710.80
2018-10-18T09:07:49.029Z,100711.33
2018-10-18T09:12:53.851Z,100713.70
2018-10-18T09:18:00.862Z,100715.25
2018-10-18T09:23:05.764Z,100713.62
2018-10-18T09:28:10.107Z,100711.98
2018-10-18T09:33:19.975Z,100709.03
2018-10-18T09:38:24.384Z,100702.52
2018-10-18T09:43:29.113Z,100696.03
2018-10-18T09:48:33.708Z,100702.27
2018-10-18T09:53:48.601Z,100702.96
2018-10-18T09:58:53.775Z,100707.45
2018-10-18T10:04:03.871Z,100718.13
2018-10-18T10:09:10.181Z,100724.73
2018-10-18T10:14:25.534Z,100715.63
2018-10-18T10:19:30.897Z,100715.59
2018-10-18T10:24:45.000Z,100715.80
2018-10-18T10:29:49.847Z,100716.81
2018-10-18T10:34:55.751Z,100718.56
2018-10-18T10:40:00.337Z,100718.56
2018-10-18T10:45:11.774Z,100718.50
2018-10-18T10:50:17.039Z,100726.70
2018-10-18T10:55:21.652Z,100717.81
2018-10-18T11:01:29.225Z,100729.05
2018-10-18T11:06:34.086Z,100726.89
2018-10-18T11:11:38.686Z,100722.63
2018-10-18T11:16:43.572Z,100724.09
2018-10-18T11:21:49.211Z,100720.32
2018-10-18T11:26:53.674Z,100724.39
2018-10-18T11:31:58.331Z,100729.44
2018-10-18T11:37:03.186Z,100734.00
2018-10-18T11:42:08.410Z,100740.15
2018-10-18T11:47:14.150Z,100731.13
2018-10-18T11:52:19.188Z,100728.30
2018-10-18T11:57:24.492Z,100732.07
2018-10-18T12:02:28.997Z,100730.77
2018-10-18T12:07:35.233Z,100725.72
2018-10-18T12:12:50.248Z,100730.02
2018-10-18T12:17:55.567Z,100735.67
2018-10-18T12:23:02.466Z,100734.31
2018-10-18T12:28:08.149Z,100739.91
2018-10-18T12:33:12.955Z,100736.11
2018-10-18T12:38:18.772Z,100738.22
2018-10-18T12:43:29.655Z,100736.56
2018-10-18T12:48:34.305Z,100737.55
2018-10-18T12:53:44.499Z,100738.87
2018-10-18T12:58:51.239Z,100738.75
2018-10-18T13:03:56.108Z,100740.38
2018-10-18T13:09:01.822Z,100739.89
2018-10-18T13:14:06.497Z,100732.05
2018-10-18T13:19:11.233Z,100732.86
2018-10-18T13:24:15.984Z,100737.67
2018-10-18T13:29:20.978Z,100739.79
2018-10-18T13:34:25.526Z,100742.27
2018-10-18T13:39:31.038Z,100743.05
2018-10-18T13:44:35.802Z,100741.68
2018-10-18T13:49:40.414Z,100744.91
2018-10-18T13:54:46.141Z,100749.36
2018-10-18T14:00:01.896Z,100744.88
2018-10-18T14:05:06.398Z,100745.10
2018-10-18T14:10:11.685Z,100745.91
2018-10-18T14:15:20.999Z,100743.73
2018-10-18T14:20:25.564Z,100742.39
2018-10-18T14:25:30.154Z,100745.10
2018-10-18T14:30:34.769Z,100741.64
2018-10-18T14:35:39.858Z,100745.63
2018-10-18T14:40:44.109Z,100750.67
2018-10-18T14:45:48.776Z,100744.22
2018-10-18T14:50:53.578Z,100748.74
2018-10-18T14:55:58.045Z,100751.64
2018-10-18T15:01:03.076Z,100752.75
2018-10-18T15:06:07.700Z,100754.34
2018-10-18T15:11:12.500Z,100758.87
2018-10-18T15:16:16.858Z,100767.66
2018-10-18T15:21:21.827Z,100771.93
2018-10-18T15:26:26.553Z,100770.85
2018-10-18T15:31:31.296Z,100772.71
2018-10-18T15:36:36.010Z,100774.31
2018-10-18T15:41:43.322Z,100773.78
2018-10-18T15:46:47.931Z,100776.69
2018-10-18T15:51:52.470Z,100780.95
2018-10-18T15:56:56.886Z,100777.14
2018-10-18T16:02:01.578Z,100773.95
2018-10-18T16:07:06.083Z,100772.61
2018-10-18T16:12:10.526Z,100778.54
2018-10-18T16:17:15.090Z,100784.95
2018-10-18T16:22:33.189Z,100784.95
2018-10-18T16:27:37.777Z,100789.22
2018-10-18T16:32:47.572Z,100789.19
2018-10-18T16:37:52.827Z,100792.41
2018-10-18T16:42:57.831Z,100792.94
2018-10-18T16:48:03.673Z,100803.63
2018-10-18T16:53:21.860Z,100803.63
2018-10-18T16:58:36.276Z,100809.78
2018-10-18T17:03:50.303Z,100816.45
2018-10-18T17:08:55.037Z,100823.63
2018-10-18T17:14:08.849Z,100829.22
2018-10-18T17:19:14.760Z,100833.75
2018-10-18T17:24:21.834Z,100827.89
2018-10-18T17:29:29.116Z,100832.42
2018-10-18T17:34:34.861Z,100829.19
2018-10-18T17:39:39.811Z,100838.28
2018-10-18T17:44:44.811Z,100835.61
2018-10-18T17:49:51.624Z,100838.48
2018-10-18T17:54:56.398Z,100842.45
2018-10-18T18:00:01.233Z,100837.66
2018-10-18T18:05:05.652Z,100842.48
2018-10-18T18:10:14.748Z,100842.19
2018-10-18T18:15:19.416Z,100846.23
2018-10-18T18:20:24.063Z,100844.11
2018-10-18T18:25:28.510Z,100859.03
2018-10-18T18:30:34.026Z,100859.23
2018-10-18T18:35:39.290Z,100862.42
2018-10-18T18:40:45.426Z,100866.73
2018-10-18T18:45:51.182Z,100870.73
2018-10-18T18:50:57.690Z,100875.52
2018-10-18T18:56:03.448Z,100891.03
2018-10-18T19:01:08.394Z,100896.90
2018-10-18T19:06:15.093Z,100903.58
2018-10-18T19:11:24.715Z,100897.13
2018-10-18T19:16:30.193Z,100899.25
2018-10-18T19:21:35.326Z,100898.23
2018-10-18T19:26:40.541Z,100902.83
2018-10-18T19:31:51.485Z,100907.65
2018-10-18T19:36:56.259Z,100906.05
2018-10-18T19:42:02.279Z,100915.66
2018-10-18T19:47:06.735Z,100919.15
2018-10-18T19:52:30.136Z,100925.02
2018-10-18T19:57:34.878Z,100937.85
2018-10-18T20:02:39.927Z,100940.27
2018-10-18T20:07:45.338Z,100940.52
2018-10-18T20:12:49.813Z,100940.78
2018-10-18T20:17:55.327Z,100948.25
2018-10-18T20:23:00.528Z,100946.94
2018-10-18T20:28:05.645Z,100934.95
2018-10-18T20:33:10.291Z,100937.67
2018-10-18T20:38:15.411Z,100939.81
2018-10-18T20:43:20.260Z,100937.15
2018-10-18T20:48:25.858Z,100935.29
2018-10-18T20:53:30.532Z,100941.70
2018-10-18T20:58:35.233Z,100947.83
2018-10-18T21:03:39.643Z,100949.43
2018-10-18T21:08:44.350Z,100953.97
2018-10-18T21:13:48.877Z,100957.42
2018-10-18T21:18:53.396Z,100950.48
2018-10-18T21:23:57.847Z,100952.88
2018-10-18T21:29:02.488Z,100951.58
2018-10-18T21:34:12.138Z,100953.23
2018-10-18T21:39:26.269Z,100952.73
2018-10-18T21:44:33.226Z,100947.10
2018-10-18T21:49:37.725Z,100947.91
2018-10-18T21:54:42.199Z,100953.28
2018-10-18T21:59:46.876Z,100955.16
2018-10-18T22:04:51.636Z,100958.91
2018-10-18T22:09:56.335Z,100956.78
2018-10-18T22:15:06.810Z,100964.24
2018-10-18T22:20:11.451Z,100969.06
2018-10-18T22:25:21.250Z,100971.47
2018-10-18T22:30:25.883Z,100967.52
2018-10-18T22:35:35.971Z,100965.36
2018-10-18T22:40:41.329Z,100960.59
2018-10-18T22:45:49.913Z,100961.95
2018-10-18T22:50:54.549Z,100963.31
2018-10-18T22:55:59.519Z,100960.65
2018-10-18T23:01:13.443Z,100968.63
2018-10-18T23:06:17.931Z,100959.58
2018-10-18T23:11:22.873Z,100965.19
2018-10-18T23:16:27.464Z,100961.20
2018-10-18T23:21:32.104Z,100960.41
2018-10-18T23:26:36.820Z,100956.95
2018-10-18T23:32:00.033Z,100957.77
2018-10-18T23:37:04.672Z,100954.05
2018-10-18T23:42:09.256Z,100957.00
2018-10-18T23:47:13.573Z,100954.36
2018-10-18T23:52:18.061Z,100954.11
2018-10-18T23:57:22.727Z,100950.38
